sensor_id;sensor_type;location;lat;lon;timestamp;P1;durP1;ratioP1;P2;durP2;ratioP2
18685;SDS011;9473;52.342;13.110;2022-11-15T00:00:51;27.98;;;11.02;;
18685;SDS011;9473;52.342;13.110;2022-11-15T00:03:19;25.55;;;11.18;;
18685;SDS011;9473;52.342;13.110;2022-11-15T00:05:46;27.45;;;12.18;;
18685;SDS011;9473;52.342;13.110;2022-11-15T00:08:15;27.33;;;11.88;;
18685;SDS011;9473;52.342;13.110;2022-11-15T00:10:42;29.45;;;12.40;;
18685;SDS011;9473;52.342;13.110;2022-11-15T00:13:09;23.48;;;11.15;;
18685;SDS011;9473;52.342;13.110;2022-11-15T00:15:37;24.63;;;11.48;;
18685;SDS011;9473;52.342;13.110;2022-11-15T00:18:04;27.05;;;11.80;;
18685;SDS011;9473;52.342;13.110;2022-11-15T00:20:32;22.90;;;10.32;;
18685;SDS011;9473;52.342;13.110;2022-11-15T00:22:59;25.52;;;11.27;;
18685;SDS011;9473;52.342;13.110;2022-11-15T00:25:28;26.50;;;11.90;;
18685;SDS011;9473;52.342;13.110;2022-11-15T00:27:55;24.85;;;11.15;;
18685;SDS011;9473;52.342;13.110;2022-11-15T00:30:22;24.90;;;11.30;;
18685;SDS011;9473;52.342;13.110;2022-11-15T00:32:49;23.33;;;10.25;;
18685;SDS011;9473;52.342;13.110;2022-11-15T00:35:16;22.90;;;11.70;;
18685;SDS011;9473;52.342;13.110;2022-11-15T00:37:43;26.67;;;10.82;;
18685;SDS011;9473;52.342;13.110;2022-11-15T00:40:11;22.85;;;11.20;;
18685;SDS011;9473;52.342;13.110;2022-11-15T00:42:40;19.83;;;9.70;;
18685;SDS011;9473;52.342;13.110;2022-11-15T00:45:07;18.90;;;9.93;;
18685;SDS011;9473;52.342;13.110;2022-11-15T00:47:34;23.92;;;10.18;;
18685;SDS011;9473;52.342;13.110;2022-11-15T00:50:01;23.95;;;10.15;;
18685;SDS011;9473;52.342;13.110;2022-11-15T00:52:28;18.75;;;9.38;;
18685;SDS011;9473;52.342;13.110;2022-11-15T00:54:55;24.35;;;11.15;;
18685;SDS011;9473;52.342;13.110;2022-11-15T00:57:21;27.73;;;10.88;;
18685;SDS011;9473;52.342;13.110;2022-11-15T00:59:50;28.85;;;11.57;;
18685;SDS011;9473;52.342;13.110;2022-11-15T01:02:17;28.30;;;11.93;;
18685;SDS011;9473;52.342;13.110;2022-11-15T01:04:43;23.77;;;10.75;;
18685;SDS011;9473;52.342;13.110;2022-11-15T01:07:10;22.80;;;9.35;;
18685;SDS011;9473;52.342;13.110;2022-11-15T01:09:38;25.48;;;10.90;;
18685;SDS011;9473;52.342;13.110;2022-11-15T01:12:04;29.90;;;12.65;;
18685;SDS011;9473;52.342;13.110;2022-11-15T01:14:31;33.15;;;13.52;;
18685;SDS011;9473;52.342;13.110;2022-11-15T01:17:00;31.00;;;12.55;;
18685;SDS011;9473;52.342;13.110;2022-11-15T01:19:26;24.77;;;11.20;;
18685;SDS011;9473;52.342;13.110;2022-11-15T01:21:53;25.40;;;11.00;;
18685;SDS011;9473;52.342;13.110;2022-11-15T01:24:20;26.05;;;11.07;;
18685;SDS011;9473;52.342;13.110;2022-11-15T01:26:47;21.33;;;10.32;;
18685;SDS011;9473;52.342;13.110;2022-11-15T01:29:14;22.75;;;10.35;;
18685;SDS011;9473;52.342;13.110;2022-11-15T01:31:41;21.42;;;10.52;;
18685;SDS011;9473;52.342;13.110;2022-11-15T01:34:09;21.00;;;10.43;;
18685;SDS011;9473;52.342;13.110;2022-11-15T01:36:36;23.48;;;10.57;;
18685;SDS011;9473;52.342;13.110;2022-11-15T01:39:03;26.48;;;11.40;;
18685;SDS011;9473;52.342;13.110;2022-11-15T01:41:31;23.95;;;10.18;;
18685;SDS011;9473;52.342;13.110;2022-11-15T01:46:40;24.83;;;10.90;;
18685;SDS011;9473;52.342;13.110;2022-11-15T01:49:11;26.30;;;11.57;;
18685;SDS011;9473;52.342;13.110;2022-11-15T01:51:39;30.33;;;12.18;;
18685;SDS011;9473;52.342;13.110;2022-11-15T01:54:07;25.27;;;11.88;;
18685;SDS011;9473;52.342;13.110;2022-11-15T01:56:36;28.38;;;12.05;;
18685;SDS011;9473;52.342;13.110;2022-11-15T01:59:04;24.00;;;11.23;;
18685;SDS011;9473;52.342;13.110;2022-11-15T02:01:33;31.17;;;12.65;;
18685;SDS011;9473;52.342;13.110;2022-11-15T02:04:00;31.45;;;13.38;;
18685;SDS011;9473;52.342;13.110;2022-11-15T02:06:30;26.17;;;11.65;;
18685;SDS011;9473;52.342;13.110;2022-11-15T02:08:57;26.15;;;12.55;;
18685;SDS011;9473;52.342;13.110;2022-11-15T02:11:24;25.50;;;12.18;;
18685;SDS011;9473;52.342;13.110;2022-11-15T02:13:51;27.35;;;12.52;;
18685;SDS011;9473;52.342;13.110;2022-11-15T02:16:20;24.75;;;11.32;;
18685;SDS011;9473;52.342;13.110;2022-11-15T02:18:54;24.20;;;11.13;;
18685;SDS011;9473;52.342;13.110;2022-11-15T02:21:25;23.48;;;10.60;;
18685;SDS011;9473;52.342;13.110;2022-11-15T02:24:07;19.10;;;9.35;;
18685;SDS011;9473;52.342;13.110;2022-11-15T02:26:49;17.88;;;9.43;;
18685;SDS011;9473;52.342;13.110;2022-11-15T02:29:18;20.15;;;9.75;;
18685;SDS011;9473;52.342;13.110;2022-11-15T02:31:50;19.20;;;8.98;;
18685;SDS011;9473;52.342;13.110;2022-11-15T02:34:20;22.08;;;11.18;;
18685;SDS011;9473;52.342;13.110;2022-11-15T02:36:54;17.13;;;8.85;;
18685;SDS011;9473;52.342;13.110;2022-11-15T02:39:26;23.52;;;10.80;;
18685;SDS011;9473;52.342;13.110;2022-11-15T02:41:54;19.02;;;9.75;;
18685;SDS011;9473;52.342;13.110;2022-11-15T02:44:24;19.63;;;9.38;;
18685;SDS011;9473;52.342;13.110;2022-11-15T02:46:54;22.63;;;11.15;;
18685;SDS011;9473;52.342;13.110;2022-11-15T02:49:40;24.98;;;12.02;;
18685;SDS011;9473;52.342;13.110;2022-11-15T02:52:08;23.52;;;10.70;;
18685;SDS011;9473;52.342;13.110;2022-11-15T02:54:35;24.63;;;11.43;;
18685;SDS011;9473;52.342;13.110;2022-11-15T02:57:03;28.02;;;11.48;;
18685;SDS011;9473;52.342;13.110;2022-11-15T02:59:43;28.10;;;11.90;;
18685;SDS011;9473;52.342;13.110;2022-11-15T03:02:20;23.67;;;10.60;;
18685;SDS011;9473;52.342;13.110;2022-11-15T03:04:53;28.13;;;13.02;;
18685;SDS011;9473;52.342;13.110;2022-11-15T03:07:23;28.70;;;12.93;;
18685;SDS011;9473;52.342;13.110;2022-11-15T03:09:54;28.38;;;12.75;;
18685;SDS011;9473;52.342;13.110;2022-11-15T03:12:24;28.88;;;11.85;;
18685;SDS011;9473;52.342;13.110;2022-11-15T03:14:53;32.45;;;13.70;;
18685;SDS011;9473;52.342;13.110;2022-11-15T03:17:23;27.70;;;11.73;;
18685;SDS011;9473;52.342;13.110;2022-11-15T03:19:51;37.53;;;15.20;;
18685;SDS011;9473;52.342;13.110;2022-11-15T03:22:20;41.28;;;15.88;;
18685;SDS011;9473;52.342;13.110;2022-11-15T03:24:50;32.25;;;13.73;;
18685;SDS011;9473;52.342;13.110;2022-11-15T03:27:19;38.17;;;14.95;;
18685;SDS011;9473;52.342;13.110;2022-11-15T03:29:49;29.40;;;13.40;;
18685;SDS011;9473;52.342;13.110;2022-11-15T03:32:17;31.77;;;13.10;;
18685;SDS011;9473;52.342;13.110;2022-11-15T03:34:47;31.13;;;12.85;;
18685;SDS011;9473;52.342;13.110;2022-11-15T03:37:15;32.47;;;13.18;;
18685;SDS011;9473;52.342;13.110;2022-11-15T03:39:44;39.90;;;16.63;;
18685;SDS011;9473;52.342;13.110;2022-11-15T03:42:15;42.53;;;15.52;;
18685;SDS011;9473;52.342;13.110;2022-11-15T03:44:45;36.67;;;14.32;;
18685;SDS011;9473;52.342;13.110;2022-11-15T03:47:16;34.75;;;13.70;;
18685;SDS011;9473;52.342;13.110;2022-11-15T03:49:44;33.90;;;14.18;;
18685;SDS011;9473;52.342;13.110;2022-11-15T03:52:14;37.25;;;15.05;;
18685;SDS011;9473;52.342;13.110;2022-11-15T03:54:50;38.03;;;13.70;;
18685;SDS011;9473;52.342;13.110;2022-11-15T03:57:17;38.85;;;15.13;;
18685;SDS011;9473;52.342;13.110;2022-11-15T03:59:44;38.22;;;16.45;;
18685;SDS011;9473;52.342;13.110;2022-11-15T04:02:11;41.20;;;16.63;;
18685;SDS011;9473;52.342;13.110;2022-11-15T04:04:38;41.58;;;16.50;;
18685;SDS011;9473;52.342;13.110;2022-11-15T04:07:05;40.22;;;15.48;;
18685;SDS011;9473;52.342;13.110;2022-11-15T04:09:33;38.17;;;15.35;;
18685;SDS011;9473;52.342;13.110;2022-11-15T04:12:20;41.40;;;15.50;;
18685;SDS011;9473;52.342;13.110;2022-11-15T04:14:55;37.53;;;15.52;;
18685;SDS011;9473;52.342;13.110;2022-11-15T04:17:32;37.80;;;14.77;;
18685;SDS011;9473;52.342;13.110;2022-11-15T04:19:59;39.35;;;15.35;;
18685;SDS011;9473;52.342;13.110;2022-11-15T04:22:44;32.22;;;13.73;;
18685;SDS011;9473;52.342;13.110;2022-11-15T04:25:30;34.40;;;14.88;;
18685;SDS011;9473;52.342;13.110;2022-11-15T04:27:57;37.20;;;14.77;;
18685;SDS011;9473;52.342;13.110;2022-11-15T04:30:23;35.75;;;14.77;;
18685;SDS011;9473;52.342;13.110;2022-11-15T04:32:50;35.65;;;14.73;;
18685;SDS011;9473;52.342;13.110;2022-11-15T04:35:17;38.33;;;14.32;;
18685;SDS011;9473;52.342;13.110;2022-11-15T04:37:44;28.92;;;12.52;;
18685;SDS011;9473;52.342;13.110;2022-11-15T04:40:11;37.15;;;15.38;;
18685;SDS011;9473;52.342;13.110;2022-11-15T04:42:41;31.67;;;13.63;;
18685;SDS011;9473;52.342;13.110;2022-11-15T04:45:08;27.60;;;12.55;;
18685;SDS011;9473;52.342;13.110;2022-11-15T04:47:35;25.67;;;11.45;;
18685;SDS011;9473;52.342;13.110;2022-11-15T04:50:03;23.98;;;10.45;;
18685;SDS011;9473;52.342;13.110;2022-11-15T04:52:30;36.75;;;14.43;;
18685;SDS011;9473;52.342;13.110;2022-11-15T04:54:56;32.67;;;13.98;;
18685;SDS011;9473;52.342;13.110;2022-11-15T04:57:23;33.42;;;14.10;;
18685;SDS011;9473;52.342;13.110;2022-11-15T04:59:52;37.20;;;15.13;;
18685;SDS011;9473;52.342;13.110;2022-11-15T05:02:18;28.52;;;12.52;;
18685;SDS011;9473;52.342;13.110;2022-11-15T05:04:45;36.53;;;14.00;;
18685;SDS011;9473;52.342;13.110;2022-11-15T05:07:11;37.65;;;14.75;;
18685;SDS011;9473;52.342;13.110;2022-11-15T05:09:38;36.58;;;13.77;;
18685;SDS011;9473;52.342;13.110;2022-11-15T05:12:05;28.33;;;11.38;;
18685;SDS011;9473;52.342;13.110;2022-11-15T05:14:32;35.65;;;14.02;;
18685;SDS011;9473;52.342;13.110;2022-11-15T05:17:00;36.72;;;14.23;;
18685;SDS011;9473;52.342;13.110;2022-11-15T05:19:27;34.65;;;15.13;;
18685;SDS011;9473;52.342;13.110;2022-11-15T05:21:54;41.92;;;15.05;;
18685;SDS011;9473;52.342;13.110;2022-11-15T05:24:21;29.73;;;12.43;;
18685;SDS011;9473;52.342;13.110;2022-11-15T05:26:48;30.05;;;12.77;;
18685;SDS011;9473;52.342;13.110;2022-11-15T05:29:15;35.50;;;14.55;;
18685;SDS011;9473;52.342;13.110;2022-11-15T05:31:42;36.47;;;14.43;;
18685;SDS011;9473;52.342;13.110;2022-11-15T05:34:10;30.55;;;13.18;;
18685;SDS011;9473;52.342;13.110;2022-11-15T05:36:38;41.88;;;15.63;;
18685;SDS011;9473;52.342;13.110;2022-11-15T05:39:05;38.20;;;14.45;;
18685;SDS011;9473;52.342;13.110;2022-11-15T05:41:33;39.05;;;15.30;;
18685;SDS011;9473;52.342;13.110;2022-11-15T05:44:01;37.03;;;14.63;;
18685;SDS011;9473;52.342;13.110;2022-11-15T05:46:29;38.95;;;15.35;;
18685;SDS011;9473;52.342;13.110;2022-11-15T05:48:56;35.58;;;13.55;;
18685;SDS011;9473;52.342;13.110;2022-11-15T05:51:24;35.95;;;14.45;;
18685;SDS011;9473;52.342;13.110;2022-11-15T05:53:53;35.40;;;14.80;;
18685;SDS011;9473;52.342;13.110;2022-11-15T05:56:22;25.40;;;11.15;;
18685;SDS011;9473;52.342;13.110;2022-11-15T05:58:49;38.92;;;13.77;;
18685;SDS011;9473;52.342;13.110;2022-11-15T06:01:16;28.98;;;12.55;;
18685;SDS011;9473;52.342;13.110;2022-11-15T06:03:43;31.42;;;13.02;;
18685;SDS011;9473;52.342;13.110;2022-11-15T06:06:09;29.17;;;11.90;;
18685;SDS011;9473;52.342;13.110;2022-11-15T06:08:38;31.13;;;12.40;;
18685;SDS011;9473;52.342;13.110;2022-11-15T06:11:05;25.38;;;11.27;;
18685;SDS011;9473;52.342;13.110;2022-11-15T06:13:32;27.05;;;11.63;;
18685;SDS011;9473;52.342;13.110;2022-11-15T06:15:59;28.83;;;11.88;;
18685;SDS011;9473;52.342;13.110;2022-11-15T06:18:26;28.50;;;12.27;;
18685;SDS011;9473;52.342;13.110;2022-11-15T06:20:53;26.42;;;11.00;;
18685;SDS011;9473;52.342;13.110;2022-11-15T06:23:20;28.48;;;11.43;;
18685;SDS011;9473;52.342;13.110;2022-11-15T06:25:48;24.90;;;10.45;;
18685;SDS011;9473;52.342;13.110;2022-11-15T06:28:15;27.63;;;11.60;;
18685;SDS011;9473;52.342;13.110;2022-11-15T06:30:43;26.92;;;10.88;;
18685;SDS011;9473;52.342;13.110;2022-11-15T06:33:10;24.10;;;10.50;;
18685;SDS011;9473;52.342;13.110;2022-11-15T06:35:37;28.70;;;11.85;;
18685;SDS011;9473;52.342;13.110;2022-11-15T06:38:04;27.23;;;10.75;;
18685;SDS011;9473;52.342;13.110;2022-11-15T06:40:33;24.35;;;10.30;;
18685;SDS011;9473;52.342;13.110;2022-11-15T06:43:01;25.48;;;10.80;;
18685;SDS011;9473;52.342;13.110;2022-11-15T06:45:28;18.73;;;9.07;;
18685;SDS011;9473;52.342;13.110;2022-11-15T06:47:55;27.63;;;11.30;;
18685;SDS011;9473;52.342;13.110;2022-11-15T06:50:22;27.38;;;12.23;;
18685;SDS011;9473;52.342;13.110;2022-11-15T06:52:49;26.75;;;10.82;;
18685;SDS011;9473;52.342;13.110;2022-11-15T06:55:16;22.48;;;10.32;;
18685;SDS011;9473;52.342;13.110;2022-11-15T06:57:46;19.27;;;8.85;;
18685;SDS011;9473;52.342;13.110;2022-11-15T07:00:16;30.17;;;10.95;;
18685;SDS011;9473;52.342;13.110;2022-11-15T07:02:43;29.55;;;11.27;;
18685;SDS011;9473;52.342;13.110;2022-11-15T07:05:10;24.42;;;10.80;;
18685;SDS011;9473;52.342;13.110;2022-11-15T07:07:37;29.70;;;11.73;;
18685;SDS011;9473;52.342;13.110;2022-11-15T07:10:04;39.25;;;15.88;;
18685;SDS011;9473;52.342;13.110;2022-11-15T07:12:32;37.17;;;14.73;;
18685;SDS011;9473;52.342;13.110;2022-11-15T07:14:59;35.75;;;14.73;;
18685;SDS011;9473;52.342;13.110;2022-11-15T07:17:27;35.53;;;13.07;;
18685;SDS011;9473;52.342;13.110;2022-11-15T07:19:54;36.70;;;13.70;;
18685;SDS011;9473;52.342;13.110;2022-11-15T07:22:21;29.92;;;13.10;;
18685;SDS011;9473;52.342;13.110;2022-11-15T07:24:48;31.77;;;13.10;;
18685;SDS011;9473;52.342;13.110;2022-11-15T07:27:15;21.92;;;9.75;;
18685;SDS011;9473;52.342;13.110;2022-11-15T07:29:41;22.63;;;10.32;;
18685;SDS011;9473;52.342;13.110;2022-11-15T07:32:08;29.20;;;11.65;;
18685;SDS011;9473;52.342;13.110;2022-11-15T07:34:37;21.60;;;10.00;;
18685;SDS011;9473;52.342;13.110;2022-11-15T07:37:04;25.58;;;11.00;;
18685;SDS011;9473;52.342;13.110;2022-11-15T07:39:30;22.95;;;9.20;;
18685;SDS011;9473;52.342;13.110;2022-11-15T07:41:58;25.30;;;10.70;;
18685;SDS011;9473;52.342;13.110;2022-11-15T07:44:39;23.25;;;10.10;;
18685;SDS011;9473;52.342;13.110;2022-11-15T07:47:06;25.50;;;10.73;;
18685;SDS011;9473;52.342;13.110;2022-11-15T07:49:33;22.55;;;10.10;;
18685;SDS011;9473;52.342;13.110;2022-11-15T07:52:01;20.35;;;9.48;;
18685;SDS011;9473;52.342;13.110;2022-11-15T07:54:28;23.55;;;10.02;;
18685;SDS011;9473;52.342;13.110;2022-11-15T07:56:55;22.60;;;10.40;;
18685;SDS011;9473;52.342;13.110;2022-11-15T07:59:22;21.73;;;9.32;;
18685;SDS011;9473;52.342;13.110;2022-11-15T08:01:48;18.92;;;9.45;;
18685;SDS011;9473;52.342;13.110;2022-11-15T08:04:15;18.48;;;9.10;;
18685;SDS011;9473;52.342;13.110;2022-11-15T08:06:42;21.55;;;9.88;;
18685;SDS011;9473;52.342;13.110;2022-11-15T08:09:10;23.75;;;9.77;;
18685;SDS011;9473;52.342;13.110;2022-11-15T08:11:37;18.02;;;9.63;;
18685;SDS011;9473;52.342;13.110;2022-11-15T08:14:04;23.05;;;9.93;;
18685;SDS011;9473;52.342;13.110;2022-11-15T08:16:31;21.45;;;10.18;;
18685;SDS011;9473;52.342;13.110;2022-11-15T08:18:58;19.13;;;9.02;;
18685;SDS011;9473;52.342;13.110;2022-11-15T08:21:25;22.05;;;9.48;;
18685;SDS011;9473;52.342;13.110;2022-11-15T08:23:52;26.83;;;10.77;;
18685;SDS011;9473;52.342;13.110;2022-11-15T08:26:20;26.83;;;11.65;;
18685;SDS011;9473;52.342;13.110;2022-11-15T08:28:47;31.98;;;13.43;;
18685;SDS011;9473;52.342;13.110;2022-11-15T08:31:15;26.90;;;12.02;;
18685;SDS011;9473;52.342;13.110;2022-11-15T08:33:42;31.33;;;12.40;;
18685;SDS011;9473;52.342;13.110;2022-11-15T08:36:11;31.05;;;12.18;;
18685;SDS011;9473;52.342;13.110;2022-11-15T08:38:39;32.58;;;13.63;;
18685;SDS011;9473;52.342;13.110;2022-11-15T08:41:06;29.17;;;12.05;;
18685;SDS011;9473;52.342;13.110;2022-11-15T08:43:34;33.05;;;13.80;;
18685;SDS011;9473;52.342;13.110;2022-11-15T08:46:01;32.47;;;13.98;;
18685;SDS011;9473;52.342;13.110;2022-11-15T08:48:28;32.20;;;13.25;;
18685;SDS011;9473;52.342;13.110;2022-11-15T08:50:56;33.15;;;13.77;;
18685;SDS011;9473;52.342;13.110;2022-11-15T08:53:23;38.63;;;14.95;;
18685;SDS011;9473;52.342;13.110;2022-11-15T08:55:50;30.15;;;12.85;;
18685;SDS011;9473;52.342;13.110;2022-11-15T08:58:17;35.25;;;14.27;;
18685;SDS011;9473;52.342;13.110;2022-11-15T09:00:45;35.15;;;14.15;;
18685;SDS011;9473;52.342;13.110;2022-11-15T09:03:12;36.80;;;14.02;;
18685;SDS011;9473;52.342;13.110;2022-11-15T09:05:39;29.77;;;12.48;;
18685;SDS011;9473;52.342;13.110;2022-11-15T09:08:06;32.28;;;13.80;;
18685;SDS011;9473;52.342;13.110;2022-11-15T09:10:33;35.40;;;14.45;;
18685;SDS011;9473;52.342;13.110;2022-11-15T09:13:01;30.35;;;13.35;;
18685;SDS011;9473;52.342;13.110;2022-11-15T09:15:28;38.28;;;14.68;;
18685;SDS011;9473;52.342;13.110;2022-11-15T09:17:58;39.90;;;14.38;;
18685;SDS011;9473;52.342;13.110;2022-11-15T09:20:25;36.10;;;14.38;;
18685;SDS011;9473;52.342;13.110;2022-11-15T09:22:52;32.65;;;13.60;;
18685;SDS011;9473;52.342;13.110;2022-11-15T09:25:19;32.25;;;13.27;;
18685;SDS011;9473;52.342;13.110;2022-11-15T09:27:46;30.10;;;13.13;;
18685;SDS011;9473;52.342;13.110;2022-11-15T09:30:13;30.33;;;12.25;;
18685;SDS011;9473;52.342;13.110;2022-11-15T09:32:40;29.30;;;13.20;;
18685;SDS011;9473;52.342;13.110;2022-11-15T09:35:08;35.70;;;12.98;;
18685;SDS011;9473;52.342;13.110;2022-11-15T09:37:35;28.88;;;12.77;;
18685;SDS011;9473;52.342;13.110;2022-11-15T09:40:02;28.95;;;12.68;;
18685;SDS011;9473;52.342;13.110;2022-11-15T09:42:34;30.58;;;13.43;;
18685;SDS011;9473;52.342;13.110;2022-11-15T09:45:10;29.70;;;12.45;;
18685;SDS011;9473;52.342;13.110;2022-11-15T09:47:40;29.17;;;12.65;;
18685;SDS011;9473;52.342;13.110;2022-11-15T09:50:15;31.13;;;12.38;;
18685;SDS011;9473;52.342;13.110;2022-11-15T09:52:44;31.55;;;12.32;;
18685;SDS011;9473;52.342;13.110;2022-11-15T09:55:12;31.08;;;13.32;;
18685;SDS011;9473;52.342;13.110;2022-11-15T09:57:47;28.60;;;11.43;;
18685;SDS011;9473;52.342;13.110;2022-11-15T10:00:18;27.02;;;11.68;;
18685;SDS011;9473;52.342;13.110;2022-11-15T10:02:49;28.23;;;12.57;;
18685;SDS011;9473;52.342;13.110;2022-11-15T10:05:22;30.25;;;12.82;;
18685;SDS011;9473;52.342;13.110;2022-11-15T10:07:50;31.60;;;12.93;;
18685;SDS011;9473;52.342;13.110;2022-11-15T10:10:22;28.13;;;12.38;;
18685;SDS011;9473;52.342;13.110;2022-11-15T10:12:52;32.70;;;12.20;;
18685;SDS011;9473;52.342;13.110;2022-11-15T10:15:19;30.00;;;12.45;;
18685;SDS011;9473;52.342;13.110;2022-11-15T10:18:01;29.30;;;12.50;;
18685;SDS011;9473;52.342;13.110;2022-11-15T10:20:33;28.90;;;11.75;;
18685;SDS011;9473;52.342;13.110;2022-11-15T10:23:02;28.58;;;12.40;;
18685;SDS011;9473;52.342;13.110;2022-11-15T10:25:32;26.42;;;10.93;;
18685;SDS011;9473;52.342;13.110;2022-11-15T10:28:00;27.48;;;12.05;;
18685;SDS011;9473;52.342;13.110;2022-11-15T10:30:32;29.05;;;11.95;;
18685;SDS011;9473;52.342;13.110;2022-11-15T10:33:00;29.08;;;11.65;;
18685;SDS011;9473;52.342;13.110;2022-11-15T10:35:36;28.10;;;11.48;;
18685;SDS011;9473;52.342;13.110;2022-11-15T10:38:07;30.20;;;12.73;;
18685;SDS011;9473;52.342;13.110;2022-11-15T10:40:34;26.52;;;11.35;;
18685;SDS011;9473;52.342;13.110;2022-11-15T10:43:05;22.75;;;10.50;;
18685;SDS011;9473;52.342;13.110;2022-11-15T10:45:33;24.67;;;10.15;;
18685;SDS011;9473;52.342;13.110;2022-11-15T10:48:22;23.63;;;10.25;;
18685;SDS011;9473;52.342;13.110;2022-11-15T10:50:51;23.70;;;9.70;;
18685;SDS011;9473;52.342;13.110;2022-11-15T10:53:21;24.67;;;10.88;;
18685;SDS011;9473;52.342;13.110;2022-11-15T10:55:52;23.13;;;10.35;;
18685;SDS011;9473;52.342;13.110;2022-11-15T10:58:21;23.80;;;10.57;;
18685;SDS011;9473;52.342;13.110;2022-11-15T11:00:49;25.23;;;10.43;;
18685;SDS011;9473;52.342;13.110;2022-11-15T11:03:28;22.13;;;10.05;;
18685;SDS011;9473;52.342;13.110;2022-11-15T11:06:04;21.08;;;9.43;;
18685;SDS011;9473;52.342;13.110;2022-11-15T11:08:32;21.80;;;9.52;;
18685;SDS011;9473;52.342;13.110;2022-11-15T11:11:00;20.02;;;9.32;;
18685;SDS011;9473;52.342;13.110;2022-11-15T11:13:28;21.13;;;9.50;;
18685;SDS011;9473;52.342;13.110;2022-11-15T11:15:56;22.67;;;9.73;;
18685;SDS011;9473;52.342;13.110;2022-11-15T11:18:26;17.98;;;8.70;;
18685;SDS011;9473;52.342;13.110;2022-11-15T11:20:57;21.45;;;9.23;;
18685;SDS011;9473;52.342;13.110;2022-11-15T11:23:32;22.95;;;9.80;;
18685;SDS011;9473;52.342;13.110;2022-11-15T11:26:01;24.70;;;9.88;;
18685;SDS011;9473;52.342;13.110;2022-11-15T11:28:35;20.60;;;8.85;;
18685;SDS011;9473;52.342;13.110;2022-11-15T11:31:07;18.70;;;8.70;;
18685;SDS011;9473;52.342;13.110;2022-11-15T11:33:41;20.48;;;9.13;;
18685;SDS011;9473;52.342;13.110;2022-11-15T11:36:14;19.75;;;8.15;;
18685;SDS011;9473;52.342;13.110;2022-11-15T11:38:50;18.75;;;8.85;;
18685;SDS011;9473;52.342;13.110;2022-11-15T11:41:20;18.85;;;8.75;;
18685;SDS011;9473;52.342;13.110;2022-11-15T11:43:52;18.77;;;8.52;;
18685;SDS011;9473;52.342;13.110;2022-11-15T11:46:42;19.63;;;8.93;;
18685;SDS011;9473;52.342;13.110;2022-11-15T11:49:12;17.80;;;8.82;;
18685;SDS011;9473;52.342;13.110;2022-11-15T11:51:42;17.15;;;8.18;;
18685;SDS011;9473;52.342;13.110;2022-11-15T11:54:13;18.63;;;8.63;;
18685;SDS011;9473;52.342;13.110;2022-11-15T11:56:41;14.98;;;7.38;;
18685;SDS011;9473;52.342;13.110;2022-11-15T11:59:10;14.23;;;6.78;;
18685;SDS011;9473;52.342;13.110;2022-11-15T12:01:43;16.00;;;8.00;;
18685;SDS011;9473;52.342;13.110;2022-11-15T12:04:11;12.77;;;7.28;;
18685;SDS011;9473;52.342;13.110;2022-11-15T12:06:41;14.35;;;7.28;;
18685;SDS011;9473;52.342;13.110;2022-11-15T12:09:14;15.77;;;7.40;;
18685;SDS011;9473;52.342;13.110;2022-11-15T12:11:43;16.55;;;6.72;;
18685;SDS011;9473;52.342;13.110;2022-11-15T12:14:16;15.15;;;7.40;;
18685;SDS011;9473;52.342;13.110;2022-11-15T12:16:45;12.80;;;6.88;;
18685;SDS011;9473;52.342;13.110;2022-11-15T12:19:12;15.88;;;6.80;;
18685;SDS011;9473;52.342;13.110;2022-11-15T12:21:40;15.15;;;7.18;;
18685;SDS011;9473;52.342;13.110;2022-11-15T12:24:13;14.68;;;7.63;;
18685;SDS011;9473;52.342;13.110;2022-11-15T12:26:41;13.77;;;6.30;;
18685;SDS011;9473;52.342;13.110;2022-11-15T12:29:12;12.13;;;6.35;;
18685;SDS011;9473;52.342;13.110;2022-11-15T12:31:41;14.63;;;6.68;;
18685;SDS011;9473;52.342;13.110;2022-11-15T12:34:13;14.00;;;6.45;;
18685;SDS011;9473;52.342;13.110;2022-11-15T12:36:42;13.75;;;6.75;;
18685;SDS011;9473;52.342;13.110;2022-11-15T12:39:10;15.10;;;7.38;;
18685;SDS011;9473;52.342;13.110;2022-11-15T12:41:40;16.25;;;7.05;;
18685;SDS011;9473;52.342;13.110;2022-11-15T12:44:10;11.48;;;5.85;;
18685;SDS011;9473;52.342;13.110;2022-11-15T12:49:42;17.73;;;7.60;;
18685;SDS011;9473;52.342;13.110;2022-11-15T12:52:09;15.77;;;6.43;;
18685;SDS011;9473;52.342;13.110;2022-11-15T12:57:38;13.40;;;6.18;;
18685;SDS011;9473;52.342;13.110;2022-11-15T13:02:55;10.50;;;5.70;;
18685;SDS011;9473;52.342;13.110;2022-11-15T13:05:53;11.02;;;5.78;;
18685;SDS011;9473;52.342;13.110;2022-11-15T13:08:34;11.38;;;5.88;;
18685;SDS011;9473;52.342;13.110;2022-11-15T13:13:45;9.38;;;5.07;;
18685;SDS011;9473;52.342;13.110;2022-11-15T13:16:12;11.20;;;5.50;;
18685;SDS011;9473;52.342;13.110;2022-11-15T13:18:45;11.02;;;5.47;;
18685;SDS011;9473;52.342;13.110;2022-11-15T13:21:21;8.93;;;4.97;;
18685;SDS011;9473;52.342;13.110;2022-11-15T13:24:10;11.23;;;5.63;;
18685;SDS011;9473;52.342;13.110;2022-11-15T13:26:38;10.30;;;5.82;;
18685;SDS011;9473;52.342;13.110;2022-11-15T13:29:12;12.15;;;5.18;;
18685;SDS011;9473;52.342;13.110;2022-11-15T13:31:42;11.40;;;5.65;;
18685;SDS011;9473;52.342;13.110;2022-11-15T13:34:15;12.15;;;5.80;;
18685;SDS011;9473;52.342;13.110;2022-11-15T13:36:42;9.82;;;5.35;;
18685;SDS011;9473;52.342;13.110;2022-11-15T13:39:12;10.30;;;5.28;;
18685;SDS011;9473;52.342;13.110;2022-11-15T13:41:44;10.73;;;5.28;;
18685;SDS011;9473;52.342;13.110;2022-11-15T13:44:19;12.50;;;5.85;;
18685;SDS011;9473;52.342;13.110;2022-11-15T13:46:47;11.43;;;5.50;;
18685;SDS011;9473;52.342;13.110;2022-11-15T13:49:13;12.25;;;5.18;;
18685;SDS011;9473;52.342;13.110;2022-11-15T13:51:42;8.80;;;4.70;;
18685;SDS011;9473;52.342;13.110;2022-11-15T13:54:13;12.32;;;5.40;;
18685;SDS011;9473;52.342;13.110;2022-11-15T13:56:44;10.80;;;5.60;;
18685;SDS011;9473;52.342;13.110;2022-11-15T13:59:14;11.27;;;5.22;;
18685;SDS011;9473;52.342;13.110;2022-11-15T14:01:43;11.73;;;5.25;;
18685;SDS011;9473;52.342;13.110;2022-11-15T14:04:11;10.38;;;5.07;;
18685;SDS011;9473;52.342;13.110;2022-11-15T14:06:43;11.70;;;5.45;;
18685;SDS011;9473;52.342;13.110;2022-11-15T14:09:30;10.32;;;5.22;;
18685;SDS011;9473;52.342;13.110;2022-11-15T14:12:00;8.35;;;4.78;;
18685;SDS011;9473;52.342;13.110;2022-11-15T14:14:27;9.32;;;4.93;;
18685;SDS011;9473;52.342;13.110;2022-11-15T14:16:56;11.38;;;5.47;;
18685;SDS011;9473;52.342;13.110;2022-11-15T14:19:34;11.40;;;5.05;;
18685;SDS011;9473;52.342;13.110;2022-11-15T14:22:12;12.73;;;5.22;;
18685;SDS011;9473;52.342;13.110;2022-11-15T14:24:40;10.48;;;5.60;;
18685;SDS011;9473;52.342;13.110;2022-11-15T14:27:17;10.95;;;4.90;;
18685;SDS011;9473;52.342;13.110;2022-11-15T14:29:44;11.05;;;4.90;;
18685;SDS011;9473;52.342;13.110;2022-11-15T14:32:13;10.02;;;5.28;;
18685;SDS011;9473;52.342;13.110;2022-11-15T14:34:41;12.77;;;5.30;;
18685;SDS011;9473;52.342;13.110;2022-11-15T14:37:10;11.95;;;5.40;;
18685;SDS011;9473;52.342;13.110;2022-11-15T14:39:43;9.50;;;5.20;;
18685;SDS011;9473;52.342;13.110;2022-11-15T14:42:11;12.00;;;5.93;;
18685;SDS011;9473;52.342;13.110;2022-11-15T14:44:38;9.43;;;5.40;;
18685;SDS011;9473;52.342;13.110;2022-11-15T14:47:05;7.97;;;4.90;;
18685;SDS011;9473;52.342;13.110;2022-11-15T14:49:33;9.02;;;4.85;;
18685;SDS011;9473;52.342;13.110;2022-11-15T14:52:00;12.20;;;5.50;;